sensor_id;sensor_type;location;lat;lon;timestamp;P1;durP1;ratioP1;P2;durP2;ratioP2
80293;SDS011;69594;43.516;1.498;2023-05-10T00:00:11;10.27;;;2.23;;
80293;SDS011;69594;43.516;1.498;2023-05-10T00:02:37;13.50;;;2.50;;
80293;SDS011;69594;43.516;1.498;2023-05-10T00:05:02;11.83;;;2.50;;
80293;SDS011;69594;43.516;1.498;2023-05-10T00:07:29;15.43;;;2.50;;
80293;SDS011;69594;43.516;1.498;2023-05-10T00:09:54;12.07;;;3.20;;
80293;SDS011;69594;43.516;1.498;2023-05-10T00:12:19;18.43;;;3.30;;
80293;SDS011;69594;43.516;1.498;2023-05-10T00:14:45;15.17;;;3.10;;
80293;SDS011;69594;43.516;1.498;2023-05-10T00:17:10;13.07;;;2.77;;
80293;SDS011;69594;43.516;1.498;2023-05-10T00:19:36;14.60;;;3.53;;
80293;SDS011;69594;43.516;1.498;2023-05-10T00:22:01;13.00;;;2.70;;
80293;SDS011;69594;43.516;1.498;2023-05-10T00:24:26;12.90;;;3.33;;
80293;SDS011;69594;43.516;1.498;2023-05-10T00:26:52;13.57;;;3.10;;
80293;SDS011;69594;43.516;1.498;2023-05-10T00:29:17;13.20;;;2.93;;
80293;SDS011;69594;43.516;1.498;2023-05-10T00:31:43;15.02;;;3.25;;
80293;SDS011;69594;43.516;1.498;2023-05-10T00:34:08;21.23;;;3.13;;
80293;SDS011;69594;43.516;1.498;2023-05-10T00:36:34;13.87;;;3.00;;
80293;SDS011;69594;43.516;1.498;2023-05-10T00:39:00;12.83;;;2.33;;
80293;SDS011;69594;43.516;1.498;2023-05-10T00:41:26;15.68;;;3.58;;
80293;SDS011;69594;43.516;1.498;2023-05-10T00:43:51;14.07;;;2.72;;
80293;SDS011;69594;43.516;1.498;2023-05-10T00:46:17;18.03;;;3.37;;
80293;SDS011;69594;43.516;1.498;2023-05-10T00:48:43;14.40;;;3.00;;
80293;SDS011;69594;43.516;1.498;2023-05-10T00:51:11;13.73;;;3.30;;
80293;SDS011;69594;43.516;1.498;2023-05-10T00:53:36;15.15;;;3.13;;
80293;SDS011;69594;43.516;1.498;2023-05-10T00:56:02;15.20;;;3.17;;
80293;SDS011;69594;43.516;1.498;2023-05-10T00:58:28;15.48;;;3.30;;
80293;SDS011;69594;43.516;1.498;2023-05-10T01:00:55;12.23;;;2.70;;
80293;SDS011;69594;43.516;1.498;2023-05-10T01:03:22;15.05;;;2.58;;
80293;SDS011;69594;43.516;1.498;2023-05-10T01:05:48;14.57;;;3.27;;
80293;SDS011;69594;43.516;1.498;2023-05-10T01:08:13;18.23;;;3.27;;
80293;SDS011;69594;43.516;1.498;2023-05-10T01:10:39;11.47;;;3.13;;
80293;SDS011;69594;43.516;1.498;2023-05-10T01:13:06;11.05;;;3.13;;
80293;SDS011;69594;43.516;1.498;2023-05-10T01:15:32;10.53;;;2.70;;
80293;SDS011;69594;43.516;1.498;2023-05-10T01:17:58;14.32;;;2.75;;
80293;SDS011;69594;43.516;1.498;2023-05-10T01:20:25;11.10;;;1.73;;
80293;SDS011;69594;43.516;1.498;2023-05-10T01:26:55;11.07;;;2.17;;
80293;SDS011;69594;43.516;1.498;2023-05-10T01:34:59;12.85;;;2.53;;
80293;SDS011;69594;43.516;1.498;2023-05-10T01:37:33;11.00;;;2.13;;
80293;SDS011;69594;43.516;1.498;2023-05-10T01:40:17;9.75;;;1.90;;
80293;SDS011;69594;43.516;1.498;2023-05-10T01:42:59;8.43;;;2.17;;
80293;SDS011;69594;43.516;1.498;2023-05-10T01:45:31;13.30;;;2.10;;
80293;SDS011;69594;43.516;1.498;2023-05-10T01:48:04;7.82;;;2.10;;
80293;SDS011;69594;43.516;1.498;2023-05-10T01:50:32;10.15;;;2.30;;
80293;SDS011;69594;43.516;1.498;2023-05-10T01:53:00;12.82;;;2.10;;
80293;SDS011;69594;43.516;1.498;2023-05-10T01:55:28;11.50;;;1.93;;
80293;SDS011;69594;43.516;1.498;2023-05-10T01:58:02;13.13;;;2.88;;
80293;SDS011;69594;43.516;1.498;2023-05-10T02:00:32;9.63;;;1.88;;
80293;SDS011;69594;43.516;1.498;2023-05-10T02:02:59;7.93;;;1.77;;
80293;SDS011;69594;43.516;1.498;2023-05-10T02:05:27;10.05;;;1.95;;
80293;SDS011;69594;43.516;1.498;2023-05-10T02:07:55;15.93;;;2.30;;
80293;SDS011;69594;43.516;1.498;2023-05-10T02:10:22;12.25;;;2.40;;
80293;SDS011;69594;43.516;1.498;2023-05-10T02:12:47;9.83;;;1.97;;
80293;SDS011;69594;43.516;1.498;2023-05-10T02:15:16;7.72;;;2.13;;
80293;SDS011;69594;43.516;1.498;2023-05-10T02:17:46;6.72;;;2.05;;
80293;SDS011;69594;43.516;1.498;2023-05-10T02:20:13;6.20;;;1.67;;
80293;SDS011;69594;43.516;1.498;2023-05-10T02:22:41;11.40;;;2.33;;
80293;SDS011;69594;43.516;1.498;2023-05-10T02:25:08;10.67;;;1.90;;
80293;SDS011;69594;43.516;1.498;2023-05-10T02:27:34;11.05;;;1.55;;
80293;SDS011;69594;43.516;1.498;2023-05-10T02:30:01;6.50;;;2.20;;
80293;SDS011;69594;43.516;1.498;2023-05-10T02:32:28;12.68;;;2.20;;
80293;SDS011;69594;43.516;1.498;2023-05-10T02:34:54;10.57;;;1.98;;
80293;SDS011;69594;43.516;1.498;2023-05-10T02:37:22;10.03;;;2.53;;
80293;SDS011;69594;43.516;1.498;2023-05-10T02:39:50;9.77;;;2.38;;
80293;SDS011;69594;43.516;1.498;2023-05-10T02:42:19;9.57;;;2.00;;
80293;SDS011;69594;43.516;1.498;2023-05-10T02:44:49;13.52;;;2.72;;
80293;SDS011;69594;43.516;1.498;2023-05-10T02:47:18;12.90;;;2.50;;
80293;SDS011;69594;43.516;1.498;2023-05-10T02:49:44;13.17;;;2.50;;
80293;SDS011;69594;43.516;1.498;2023-05-10T02:52:09;13.77;;;2.30;;
80293;SDS011;69594;43.516;1.498;2023-05-10T02:54:45;16.73;;;2.95;;
80293;SDS011;69594;43.516;1.498;2023-05-10T02:57:20;13.77;;;2.53;;
80293;SDS011;69594;43.516;1.498;2023-05-10T02:59:53;12.90;;;2.72;;
80293;SDS011;69594;43.516;1.498;2023-05-10T03:02:20;10.48;;;2.03;;
80293;SDS011;69594;43.516;1.498;2023-05-10T03:04:45;13.18;;;2.05;;
80293;SDS011;69594;43.516;1.498;2023-05-10T03:07:11;13.23;;;2.20;;
80293;SDS011;69594;43.516;1.498;2023-05-10T03:09:37;10.82;;;2.50;;
80293;SDS011;69594;43.516;1.498;2023-05-10T03:18:10;8.33;;;2.10;;
80293;SDS011;69594;43.516;1.498;2023-05-10T03:20:42;9.50;;;2.50;;
80293;SDS011;69594;43.516;1.498;2023-05-10T03:23:13;9.93;;;2.22;;
80293;SDS011;69594;43.516;1.498;2023-05-10T03:25:44;15.63;;;3.08;;
80293;SDS011;69594;43.516;1.498;2023-05-10T03:28:12;8.77;;;2.42;;
80293;SDS011;69594;43.516;1.498;2023-05-10T03:30:40;10.00;;;1.93;;
80293;SDS011;69594;43.516;1.498;2023-05-10T03:33:07;11.82;;;2.20;;
80293;SDS011;69594;43.516;1.498;2023-05-10T03:35:33;8.45;;;1.60;;
80293;SDS011;69594;43.516;1.498;2023-05-10T03:37:59;10.87;;;2.13;;
80293;SDS011;69594;43.516;1.498;2023-05-10T03:40:25;10.00;;;2.13;;
80293;SDS011;69594;43.516;1.498;2023-05-10T03:42:55;5.72;;;1.33;;
80293;SDS011;69594;43.516;1.498;2023-05-10T03:45:20;5.82;;;2.15;;
80293;SDS011;69594;43.516;1.498;2023-05-10T03:47:46;9.87;;;1.23;;
80293;SDS011;69594;43.516;1.498;2023-05-10T03:50:11;10.45;;;1.60;;
80293;SDS011;69594;43.516;1.498;2023-05-10T03:52:37;9.70;;;2.10;;
80293;SDS011;69594;43.516;1.498;2023-05-10T03:55:04;16.10;;;3.00;;
80293;SDS011;69594;43.516;1.498;2023-05-10T03:57:30;7.80;;;2.08;;
80293;SDS011;69594;43.516;1.498;2023-05-10T03:59:56;7.17;;;1.53;;
80293;SDS011;69594;43.516;1.498;2023-05-10T04:02:21;10.23;;;1.70;;
80293;SDS011;69594;43.516;1.498;2023-05-10T04:04:48;15.80;;;2.22;;
80293;SDS011;69594;43.516;1.498;2023-05-10T04:07:13;13.00;;;2.50;;
80293;SDS011;69594;43.516;1.498;2023-05-10T04:09:39;11.93;;;2.10;;
80293;SDS011;69594;43.516;1.498;2023-05-10T04:12:05;13.20;;;1.87;;
80293;SDS011;69594;43.516;1.498;2023-05-10T04:14:32;10.25;;;1.73;;
80293;SDS011;69594;43.516;1.498;2023-05-10T04:16:57;8.23;;;1.57;;
80293;SDS011;69594;43.516;1.498;2023-05-10T04:19:24;9.07;;;1.42;;
80293;SDS011;69594;43.516;1.498;2023-05-10T04:21:53;11.13;;;1.97;;
80293;SDS011;69594;43.516;1.498;2023-05-10T04:24:19;8.20;;;2.17;;
80293;SDS011;69594;43.516;1.498;2023-05-10T04:26:44;7.43;;;1.13;;
80293;SDS011;69594;43.516;1.498;2023-05-10T04:29:11;9.82;;;1.90;;
80293;SDS011;69594;43.516;1.498;2023-05-10T04:31:37;8.73;;;1.80;;
80293;SDS011;69594;43.516;1.498;2023-05-10T04:34:02;11.13;;;2.23;;
80293;SDS011;69594;43.516;1.498;2023-05-10T04:36:28;13.15;;;2.40;;
80293;SDS011;69594;43.516;1.498;2023-05-10T04:38:53;9.03;;;1.70;;
80293;SDS011;69594;43.516;1.498;2023-05-10T04:41:19;9.93;;;1.73;;
80293;SDS011;69594;43.516;1.498;2023-05-10T04:43:46;9.27;;;1.65;;
80293;SDS011;69594;43.516;1.498;2023-05-10T04:46:14;9.07;;;1.77;;
80293;SDS011;69594;43.516;1.498;2023-05-10T04:48:39;9.93;;;2.53;;
80293;SDS011;69594;43.516;1.498;2023-05-10T04:51:04;11.67;;;2.20;;
80293;SDS011;69594;43.516;1.498;2023-05-10T04:53:31;10.93;;;1.63;;
80293;SDS011;69594;43.516;1.498;2023-05-10T04:55:59;12.20;;;2.25;;
80293;SDS011;69594;43.516;1.498;2023-05-10T04:58:24;11.43;;;1.70;;
80293;SDS011;69594;43.516;1.498;2023-05-10T05:00:50;10.43;;;1.97;;
80293;SDS011;69594;43.516;1.498;2023-05-10T05:03:15;8.97;;;1.67;;
80293;SDS011;69594;43.516;1.498;2023-05-10T05:05:41;7.57;;;1.40;;
80293;SDS011;69594;43.516;1.498;2023-05-10T05:08:06;14.37;;;2.27;;
80293;SDS011;69594;43.516;1.498;2023-05-10T05:10:31;8.50;;;2.47;;
80293;SDS011;69594;43.516;1.498;2023-05-10T05:12:57;8.57;;;1.93;;
80293;SDS011;69594;43.516;1.498;2023-05-10T05:15:23;11.27;;;2.00;;
80293;SDS011;69594;43.516;1.498;2023-05-10T05:17:49;10.80;;;2.47;;
80293;SDS011;69594;43.516;1.498;2023-05-10T05:20:16;14.13;;;2.00;;
80293;SDS011;69594;43.516;1.498;2023-05-10T05:22:43;10.82;;;2.38;;
80293;SDS011;69594;43.516;1.498;2023-05-10T05:25:08;13.50;;;1.93;;
80293;SDS011;69594;43.516;1.498;2023-05-10T05:27:34;14.47;;;2.10;;
80293;SDS011;69594;43.516;1.498;2023-05-10T05:29:59;16.73;;;2.90;;
80293;SDS011;69594;43.516;1.498;2023-05-10T05:32:25;10.27;;;2.10;;
80293;SDS011;69594;43.516;1.498;2023-05-10T05:34:50;9.67;;;1.93;;
80293;SDS011;69594;43.516;1.498;2023-05-10T05:37:16;17.57;;;3.10;;
80293;SDS011;69594;43.516;1.498;2023-05-10T05:39:43;13.60;;;2.40;;
80293;SDS011;69594;43.516;1.498;2023-05-10T05:42:10;15.93;;;2.95;;
80293;SDS011;69594;43.516;1.498;2023-05-10T05:44:35;9.38;;;1.52;;
80293;SDS011;69594;43.516;1.498;2023-05-10T05:47:01;14.17;;;2.70;;
80293;SDS011;69594;43.516;1.498;2023-05-10T05:49:27;10.13;;;1.98;;
80293;SDS011;69594;43.516;1.498;2023-05-10T05:51:53;9.20;;;2.07;;
80293;SDS011;69594;43.516;1.498;2023-05-10T05:54:19;9.80;;;1.83;;
80293;SDS011;69594;43.516;1.498;2023-05-10T05:56:44;10.93;;;1.80;;
80293;SDS011;69594;43.516;1.498;2023-05-10T05:59:10;7.33;;;1.77;;
80293;SDS011;69594;43.516;1.498;2023-05-10T06:01:36;8.10;;;1.77;;
80293;SDS011;69594;43.516;1.498;2023-05-10T06:04:01;10.30;;;1.80;;
80293;SDS011;69594;43.516;1.498;2023-05-10T06:06:26;10.17;;;2.07;;
80293;SDS011;69594;43.516;1.498;2023-05-10T06:08:52;7.40;;;1.40;;
80293;SDS011;69594;43.516;1.498;2023-05-10T06:11:18;9.90;;;1.87;;
80293;SDS011;69594;43.516;1.498;2023-05-10T06:13:43;7.17;;;1.83;;
80293;SDS011;69594;43.516;1.498;2023-05-10T06:16:09;9.90;;;2.00;;
80293;SDS011;69594;43.516;1.498;2023-05-10T06:18:34;10.33;;;1.80;;
80293;SDS011;69594;43.516;1.498;2023-05-10T06:21:00;8.15;;;1.73;;
80293;SDS011;69594;43.516;1.498;2023-05-10T06:23:26;12.87;;;2.63;;
80293;SDS011;69594;43.516;1.498;2023-05-10T06:25:51;8.00;;;2.20;;
80293;SDS011;69594;43.516;1.498;2023-05-10T06:28:17;10.60;;;2.05;;
80293;SDS011;69594;43.516;1.498;2023-05-10T06:30:42;11.27;;;2.13;;
80293;SDS011;69594;43.516;1.498;2023-05-10T06:33:08;12.15;;;2.13;;
80293;SDS011;69594;43.516;1.498;2023-05-10T06:35:34;9.47;;;2.20;;
80293;SDS011;69594;43.516;1.498;2023-05-10T06:37:59;15.37;;;2.40;;
80293;SDS011;69594;43.516;1.498;2023-05-10T06:40:25;19.70;;;2.80;;
80293;SDS011;69594;43.516;1.498;2023-05-10T06:42:50;13.50;;;2.47;;
80293;SDS011;69594;43.516;1.498;2023-05-10T06:45:16;14.70;;;2.60;;
80293;SDS011;69594;43.516;1.498;2023-05-10T06:47:42;9.98;;;1.92;;
80293;SDS011;69594;43.516;1.498;2023-05-10T06:50:08;9.15;;;2.30;;
80293;SDS011;69594;43.516;1.498;2023-05-10T06:52:34;11.63;;;2.17;;
80293;SDS011;69594;43.516;1.498;2023-05-10T06:55:00;10.93;;;2.50;;
80293;SDS011;69594;43.516;1.498;2023-05-10T06:57:26;14.90;;;2.97;;
80293;SDS011;69594;43.516;1.498;2023-05-10T06:59:52;10.27;;;1.87;;
80293;SDS011;69594;43.516;1.498;2023-05-10T07:02:17;11.63;;;3.07;;
80293;SDS011;69594;43.516;1.498;2023-05-10T07:04:43;11.20;;;2.38;;
80293;SDS011;69594;43.516;1.498;2023-05-10T07:07:08;8.80;;;1.57;;
80293;SDS011;69594;43.516;1.498;2023-05-10T07:09:34;9.87;;;1.60;;
80293;SDS011;69594;43.516;1.498;2023-05-10T07:11:59;11.93;;;2.42;;
80293;SDS011;69594;43.516;1.498;2023-05-10T07:14:26;10.98;;;2.22;;
80293;SDS011;69594;43.516;1.498;2023-05-10T07:16:52;8.10;;;1.90;;
80293;SDS011;69594;43.516;1.498;2023-05-10T07:19:17;12.50;;;2.67;;
80293;SDS011;69594;43.516;1.498;2023-05-10T07:21:43;12.13;;;2.53;;
80293;SDS011;69594;43.516;1.498;2023-05-10T07:24:08;13.07;;;2.40;;
80293;SDS011;69594;43.516;1.498;2023-05-10T07:26:34;11.13;;;2.30;;
80293;SDS011;69594;43.516;1.498;2023-05-10T07:28:59;17.80;;;2.83;;
80293;SDS011;69594;43.516;1.498;2023-05-10T07:31:25;15.90;;;2.47;;
80293;SDS011;69594;43.516;1.498;2023-05-10T07:33:50;11.30;;;2.37;;
80293;SDS011;69594;43.516;1.498;2023-05-10T07:36:16;14.33;;;2.13;;
80293;SDS011;69594;43.516;1.498;2023-05-10T07:38:41;11.50;;;2.17;;
80293;SDS011;69594;43.516;1.498;2023-05-10T07:41:07;8.37;;;2.23;;
80293;SDS011;69594;43.516;1.498;2023-05-10T07:43:32;10.97;;;2.30;;
80293;SDS011;69594;43.516;1.498;2023-05-10T07:45:57;9.10;;;2.00;;
80293;SDS011;69594;43.516;1.498;2023-05-10T07:48:24;12.40;;;2.35;;
80293;SDS011;69594;43.516;1.498;2023-05-10T07:50:50;10.13;;;2.33;;
80293;SDS011;69594;43.516;1.498;2023-05-10T07:53:15;13.23;;;2.40;;
80293;SDS011;69594;43.516;1.498;2023-05-10T07:55:41;14.55;;;2.50;;
80293;SDS011;69594;43.516;1.498;2023-05-10T07:58:07;13.17;;;2.90;;
80293;SDS011;69594;43.516;1.498;2023-05-10T08:00:32;10.53;;;2.13;;
80293;SDS011;69594;43.516;1.498;2023-05-10T08:02:57;13.43;;;2.60;;
80293;SDS011;69594;43.516;1.498;2023-05-10T08:05:23;11.83;;;2.10;;
80293;SDS011;69594;43.516;1.498;2023-05-10T08:07:48;9.65;;;2.08;;
80293;SDS011;69594;43.516;1.498;2023-05-10T08:10:14;14.50;;;2.10;;
80293;SDS011;69594;43.516;1.498;2023-05-10T08:12:39;10.73;;;2.33;;
80293;SDS011;69594;43.516;1.498;2023-05-10T08:15:05;11.57;;;1.90;;
80293;SDS011;69594;43.516;1.498;2023-05-10T08:17:31;10.40;;;2.67;;
80293;SDS011;69594;43.516;1.498;2023-05-10T08:19:57;11.07;;;2.20;;
80293;SDS011;69594;43.516;1.498;2023-05-10T08:22:22;12.67;;;2.37;;
80293;SDS011;69594;43.516;1.498;2023-05-10T08:24:48;13.77;;;2.33;;
80293;SDS011;69594;43.516;1.498;2023-05-10T08:27:13;9.20;;;1.83;;
80293;SDS011;69594;43.516;1.498;2023-05-10T08:29:40;6.97;;;1.53;;
80293;SDS011;69594;43.516;1.498;2023-05-10T08:32:05;12.52;;;3.17;;
80293;SDS011;69594;43.516;1.498;2023-05-10T08:34:31;7.57;;;1.90;;
80293;SDS011;69594;43.516;1.498;2023-05-10T08:36:56;8.05;;;2.10;;
80293;SDS011;69594;43.516;1.498;2023-05-10T08:39:22;10.57;;;2.40;;
80293;SDS011;69594;43.516;1.498;2023-05-10T08:41:48;11.07;;;2.13;;
80293;SDS011;69594;43.516;1.498;2023-05-10T08:44:16;11.23;;;2.35;;
80293;SDS011;69594;43.516;1.498;2023-05-10T08:46:43;6.77;;;1.60;;
80293;SDS011;69594;43.516;1.498;2023-05-10T08:49:13;8.43;;;1.85;;
80293;SDS011;69594;43.516;1.498;2023-05-10T08:51:43;8.43;;;1.58;;
80293;SDS011;69594;43.516;1.498;2023-05-10T08:54:14;8.50;;;1.80;;
80293;SDS011;69594;43.516;1.498;2023-05-10T08:56:40;8.52;;;1.88;;
80293;SDS011;69594;43.516;1.498;2023-05-10T08:59:06;7.07;;;1.77;;
80293;SDS011;69594;43.516;1.498;2023-05-10T09:01:32;8.23;;;2.03;;
80293;SDS011;69594;43.516;1.498;2023-05-10T09:04:00;7.55;;;2.03;;
80293;SDS011;69594;43.516;1.498;2023-05-10T09:06:25;7.73;;;1.57;;
80293;SDS011;69594;43.516;1.498;2023-05-10T09:08:51;5.53;;;1.57;;
80293;SDS011;69594;43.516;1.498;2023-05-10T09:11:17;6.82;;;1.60;;
80293;SDS011;69594;43.516;1.498;2023-05-10T09:13:43;10.50;;;2.03;;
80293;SDS011;69594;43.516;1.498;2023-05-10T09:16:09;12.60;;;1.63;;
80293;SDS011;69594;43.516;1.498;2023-05-10T09:18:34;6.77;;;1.80;;
80293;SDS011;69594;43.516;1.498;2023-05-10T09:21:00;10.70;;;1.83;;
80293;SDS011;69594;43.516;1.498;2023-05-10T09:23:25;8.30;;;2.40;;
80293;SDS011;69594;43.516;1.498;2023-05-10T09:26:06;7.97;;;2.23;;
80293;SDS011;69594;43.516;1.498;2023-05-10T09:28:50;6.70;;;1.60;;
80293;SDS011;69594;43.516;1.498;2023-05-10T09:31:17;9.07;;;1.83;;
80293;SDS011;69594;43.516;1.498;2023-05-10T09:33:46;10.20;;;1.73;;
80293;SDS011;69594;43.516;1.498;2023-05-10T09:36:12;7.40;;;1.83;;
80293;SDS011;69594;43.516;1.498;2023-05-10T09:38:48;4.80;;;1.30;;
80293;SDS011;69594;43.516;1.498;2023-05-10T09:41:19;4.70;;;1.50;;
80293;SDS011;69594;43.516;1.498;2023-05-10T09:43:48;7.67;;;1.70;;
80293;SDS011;69594;43.516;1.498;2023-05-10T09:46:15;6.65;;;1.50;;
80293;SDS011;69594;43.516;1.498;2023-05-10T09:48:44;6.57;;;1.77;;
80293;SDS011;69594;43.516;1.498;2023-05-10T09:51:18;7.72;;;1.20;;
80293;SDS011;69594;43.516;1.498;2023-05-10T09:53:48;9.13;;;1.50;;
80293;SDS011;69594;43.516;1.498;2023-05-10T09:56:32;8.03;;;1.80;;
80293;SDS011;69594;43.516;1.498;2023-05-10T09:59:03;6.75;;;1.45;;
80293;SDS011;69594;43.516;1.498;2023-05-10T10:01:29;5.10;;;1.40;;
80293;SDS011;69594;43.516;1.498;2023-05-10T10:03:55;7.25;;;1.35;;
80293;SDS011;69594;43.516;1.498;2023-05-10T10:06:22;7.93;;;1.35;;
80293;SDS011;69594;43.516;1.498;2023-05-10T10:08:48;7.90;;;1.70;;
80293;SDS011;69594;43.516;1.498;2023-05-10T10:11:14;8.13;;;1.52;;
80293;SDS011;69594;43.516;1.498;2023-05-10T10:13:40;5.17;;;1.53;;
80293;SDS011;69594;43.516;1.498;2023-05-10T10:16:05;9.02;;;1.92;;
80293;SDS011;69594;43.516;1.498;2023-05-10T10:18:33;9.33;;;1.80;;
80293;SDS011;69594;43.516;1.498;2023-05-10T10:20:58;12.20;;;2.03;;
80293;SDS011;69594;43.516;1.498;2023-05-10T10:23:24;4.43;;;1.03;;
80293;SDS011;69594;43.516;1.498;2023-05-10T10:25:50;10.60;;;1.53;;
80293;SDS011;69594;43.516;1.498;2023-05-10T10:28:37;6.50;;;1.63;;
80293;SDS011;69594;43.516;1.498;2023-05-10T10:31:41;8.00;;;1.13;;
80293;SDS011;69594;43.516;1.498;2023-05-10T10:34:27;5.82;;;1.30;;
80293;SDS011;69594;43.516;1.498;2023-05-10T10:36:53;6.83;;;1.47;;
80293;SDS011;69594;43.516;1.498;2023-05-10T10:39:20;3.83;;;1.00;;
80293;SDS011;69594;43.516;1.498;2023-05-10T10:41:50;5.53;;;1.42;;
80293;SDS011;69594;43.516;1.498;2023-05-10T10:50:22;5.83;;;1.00;;
80293;SDS011;69594;43.516;1.498;2023-05-10T10:52:30;7.18;;;1.02;;
80293;SDS011;69594;43.516;1.498;2023-05-10T10:55:01;3.92;;;1.45;;
80293;SDS011;69594;43.516;1.498;2023-05-10T10:57:31;7.47;;;1.33;;
80293;SDS011;69594;43.516;1.498;2023-05-10T11:05:36;6.57;;;1.65;;
80293;SDS011;69594;43.516;1.498;2023-05-10T11:08:12;7.05;;;1.52;;
80293;SDS011;69594;43.516;1.498;2023-05-10T11:11:24;6.18;;;1.38;;
80293;SDS011;69594;43.516;1.498;2023-05-10T11:18:41;6.63;;;1.13;;
80293;SDS011;69594;43.516;1.498;2023-05-10T11:21:30;9.55;;;1.50;;
80293;SDS011;69594;43.516;1.498;2023-05-10T11:23:57;6.57;;;1.00;;
80293;SDS011;69594;43.516;1.498;2023-05-10T11:26:24;4.40;;;1.23;;
80293;SDS011;69594;43.516;1.498;2023-05-10T11:28:52;7.83;;;1.63;;
80293;SDS011;69594;43.516;1.498;2023-05-10T11:31:23;8.88;;;1.20;;
80293;SDS011;69594;43.516;1.498;2023-05-10T11:33:52;5.93;;;1.50;;
80293;SDS011;69594;43.516;1.498;2023-05-10T11:36:19;7.95;;;1.50;;
80293;SDS011;69594;43.516;1.498;2023-05-10T11:38:47;5.25;;;1.30;;
80293;SDS011;69594;43.516;1.498;2023-05-10T11:41:13;5.17;;;1.53;;
80293;SDS011;69594;43.516;1.498;2023-05-10T11:43:39;8.32;;;1.83;;
80293;SDS011;69594;43.516;1.498;2023-05-10T11:46:06;7.05;;;1.58;;
80293;SDS011;69594;43.516;1.498;2023-05-10T11:48:32;7.07;;;1.50;;
80293;SDS011;69594;43.516;1.498;2023-05-10T11:50:58;6.85;;;1.55;;
80293;SDS011;69594;43.516;1.498;2023-05-10T11:53:27;10.43;;;1.60;;
80293;SDS011;69594;43.516;1.498;2023-05-10T11:56:03;9.07;;;2.15;;
80293;SDS011;69594;43.516;1.498;2023-05-10T11:58:33;6.68;;;1.50;;
80293;SDS011;69594;43.516;1.498;2023-05-10T12:00:59;8.75;;;1.50;;
80293;SDS011;69594;43.516;1.498;2023-05-10T12:03:26;6.13;;;1.20;;
80293;SDS011;69594;43.516;1.498;2023-05-10T12:05:52;4.03;;;1.00;;
80293;SDS011;69594;43.516;1.498;2023-05-10T12:08:22;4.47;;;0.82;;
80293;SDS011;69594;43.516;1.498;2023-05-10T12:10:52;3.13;;;0.88;;
80293;SDS011;69594;43.516;1.498;2023-05-10T12:13:19;5.65;;;1.10;;
80293;SDS011;69594;43.516;1.498;2023-05-10T12:15:46;3.90;;;1.00;;
80293;SDS011;69594;43.516;1.498;2023-05-10T12:18:12;2.05;;;0.65;;
80293;SDS011;69594;43.516;1.498;2023-05-10T12:20:39;2.78;;;0.85;;
80293;SDS011;69594;43.516;1.498;2023-05-10T12:23:05;4.00;;;0.80;;
80293;SDS011;69594;43.516;1.498;2023-05-10T12:25:33;3.83;;;1.00;;
80293;SDS011;69594;43.516;1.498;2023-05-10T12:28:00;2.63;;;0.70;;
80293;SDS011;69594;43.516;1.498;2023-05-10T12:30:28;3.53;;;0.80;;
80293;SDS011;69594;43.516;1.498;2023-05-10T12:33:08;3.70;;;0.93;;
80293;SDS011;69594;43.516;1.498;2023-05-10T12:35:44;6.18;;;1.40;;
80293;SDS011;69594;43.516;1.498;2023-05-10T12:38:28;5.37;;;1.27;;
80293;SDS011;69594;43.516;1.498;2023-05-10T12:40:59;5.80;;;1.30;;
80293;SDS011;69594;43.516;1.498;2023-05-10T12:43:26;6.63;;;1.77;;
80293;SDS011;69594;43.516;1.498;2023-05-10T12:45:52;6.25;;;1.38;;
80293;SDS011;69594;43.516;1.498;2023-05-10T12:48:18;11.80;;;1.50;;
80293;SDS011;69594;43.516;1.498;2023-05-10T12:50:44;4.18;;;1.02;;
80293;SDS011;69594;43.516;1.498;2023-05-10T12:53:10;7.22;;;1.52;;
80293;SDS011;69594;43.516;1.498;2023-05-10T12:55:36;3.93;;;1.13;;
80293;SDS011;69594;43.516;1.498;2023-05-10T12:58:01;4.80;;;1.10;;
80293;SDS011;69594;43.516;1.498;2023-05-10T13:00:26;3.50;;;0.90;;
80293;SDS011;69594;43.516;1.498;2023-05-10T13:02:52;5.53;;;1.00;;
80293;SDS011;69594;43.516;1.498;2023-05-10T13:05:18;3.53;;;0.90;;
80293;SDS011;69594;43.516;1.498;2023-05-10T13:07:43;3.00;;;0.90;;
80293;SDS011;69594;43.516;1.498;2023-05-10T13:10:09;4.70;;;0.93;;
80293;SDS011;69594;43.516;1.498;2023-05-10T13:12:35;3.80;;;1.00;;
80293;SDS011;69594;43.516;1.498;2023-05-10T13:15:00;3.95;;;0.98;;
80293;SDS011;69594;43.516;1.498;2023-05-10T13:17:26;2.30;;;0.70;;
80293;SDS011;69594;43.516;1.498;2023-05-10T13:19:52;5.78;;;1.10;;
80293;SDS011;69594;43.516;1.498;2023-05-10T13:22:17;3.77;;;0.80;;
80293;SDS011;69594;43.516;1.498;2023-05-10T13:24:43;4.50;;;1.00;;
80293;SDS011;69594;43.516;1.498;2023-05-10T13:27:09;2.50;;;1.00;;
80293;SDS011;69594;43.516;1.498;2023-05-10T13:29:35;5.23;;;0.80;;
80293;SDS011;69594;43.516;1.498;2023-05-10T13:32:00;3.53;;;0.90;;
80293;SDS011;69594;43.516;1.498;2023-05-10T13:34:26;2.37;;;0.83;;
80293;SDS011;69594;43.516;1.498;2023-05-10T13:36:52;4.70;;;1.07;;
80293;SDS011;69594;43.516;1.498;2023-05-10T13:39:19;6.90;;;1.00;;
80293;SDS011;69594;43.516;1.498;2023-05-10T13:41:45;3.38;;;0.80;;
80293;SDS011;69594;43.516;1.498;2023-05-10T13:44:12;5.78;;;1.00;;
80293;SDS011;69594;43.516;1.498;2023-05-10T13:46:38;6.63;;;1.13;;
80293;SDS011;69594;43.516;1.498;2023-05-10T13:49:04;1.73;;;0.83;;
80293;SDS011;69594;43.516;1.498;2023-05-10T13:51:30;4.70;;;1.00;;
80293;SDS011;69594;43.516;1.498;2023-05-10T13:53:56;3.78;;;0.93;;
80293;SDS011;69594;43.516;1.498;2023-05-10T13:56:22;5.93;;;1.15;;
80293;SDS011;69594;43.516;1.498;2023-05-10T13:58:48;4.80;;;1.00;;
80293;SDS011;69594;43.516;1.498;2023-05-10T14:01:13;5.00;;;1.00;;
80293;SDS011;69594;43.516;1.498;2023-05-10T14:03:39;3.50;;;0.90;;
80293;SDS011;69594;43.516;1.498;2023-05-10T14:06:04;3.20;;;0.87;;
80293;SDS011;69594;43.516;1.498;2023-05-10T14:08:33;6.38;;;1.02;;
80293;SDS011;69594;43.516;1.498;2023-05-10T14:11:00;4.22;;;1.10;;
80293;SDS011;69594;43.516;1.498;2023-05-10T14:13:26;5.03;;;1.03;;
80293;SDS011;69594;43.516;1.498;2023-05-10T14:15:52;4.93;;;1.17;;
80293;SDS011;69594;43.516;1.498;2023-05-10T14:18:19;5.97;;;1.57;;
80293;SDS011;69594;43.516;1.498;2023-05-10T14:20:45;4.68;;;1.10;;
80293;SDS011;69594;43.516;1.498;2023-05-10T14:23:10;3.78;;;1.17;;
80293;SDS011;69594;43.516;1.498;2023-05-10T14:25:36;5.50;;;1.13;;
80293;SDS011;69594;43.516;1.498;2023-05-10T14:28:02;3.72;;;1.20;;
80293;SDS011;69594;43.516;1.498;2023-05-10T14:30:28;5.73;;;1.00;;
80293;SDS011;69594;43.516;1.498;2023-05-10T14:32:53;6.22;;;1.17;;
80293;SDS011;69594;43.516;1.498;2023-05-10T14:35:19;3.97;;;1.00;;
80293;SDS011;69594;43.516;1.498;2023-05-10T14:37:45;4.68;;;1.10;;
80293;SDS011;69594;43.516;1.498;2023-05-10T14:40:10;2.47;;;0.87;;
80293;SDS011;69594;43.516;1.498;2023-05-10T14:42:37;8.13;;;1.05;;
80293;SDS011;69594;43.516;1.498;2023-05-10T14:45:02;2.53;;;0.80;;
80293;SDS011;69594;43.516;1.498;2023-05-10T14:47:28;2.33;;;0.82;;
80293;SDS011;69594;43.516;1.498;2023-05-10T14:49:54;3.37;;;0.80;;
80293;SDS011;69594;43.516;1.498;2023-05-10T14:52:19;4.50;;;1.13;;
80293;SDS011;69594;43.516;1.498;2023-05-10T14:54:45;2.17;;;0.80;;
80293;SDS011;69594;43.516;1.498;2023-05-10T14:57:10;3.90;;;1.00;;
80293;SDS011;69594;43.516;1.498;2023-05-10T14:59:36;2.25;;;0.80;;
80293;SDS011;69594;43.516;1.498;2023-05-10T15:02:01;3.87;;;0.87;;
80293;SDS011;69594;43.516;1.498;2023-05-10T15:04:28;4.95;;;1.20;;
80293;SDS011;69594;43.516;1.498;2023-05-10T15:06:53;5.57;;;1.10;;
80293;SDS011;69594;43.516;1.498;2023-05-10T15:09:23;3.20;;;1.05;;
80293;SDS011;69594;43.516;1.498;2023-05-10T15:11:49;3.93;;;1.07;;
80293;SDS011;69594;43.516;1.498;2023-05-10T15:14:15;4.78;;;0.90;;